Time;durP1;ratioP1;P1;durP2;ratioP2;P2;SDS_P1;SDS_P2;PMS_P1;PMS_P2;Temp;Humidity;BMP_temperature;BMP_pressure;BME280_temperature;BME280_humidity;BME280_pressure;Samples;Min_cycle;Max_cycle;Signal;HPM_P1;HPM_P2
2024/04/16 00:00:58;0.00;0.00;0.62;0.00;0.00;0.62;7.60;6.43;;;24.70;20.10;;;;;;2046963;62;20928;-67
2024/04/16 00:03:43;0.00;0.00;0.62;0.00;0.00;0.62;7.57;6.77;;;24.70;20.10;;;;;;2045451;62;21043;-66
2024/04/16 00:06:31;0.00;0.00;0.62;0.00;0.00;0.62;7.00;5.13;;;24.70;20.10;;;;;;2052303;62;20519;-64
2024/04/16 00:09:16;0.00;0.00;0.62;0.00;0.00;0.62;6.30;5.17;;;24.70;20.10;;;;;;2047850;62;20652;-65
2024/04/16 00:12:00;0.00;0.00;0.62;0.00;0.00;0.62;6.47;5.27;;;24.70;20.20;;;;;;2047115;62;20537;-65
2024/04/16 00:15:00;0.00;0.00;0.62;0.00;0.00;0.62;8.10;6.53;;;24.60;20.10;;;;;;2042904;62;21025;-64
2024/04/16 00:17:46;0.00;0.00;0.62;0.00;0.00;0.62;6.30;5.70;;;24.60;20.10;;;;;;2043644;62;20528;-66
2024/04/16 00:20:30;0.00;0.00;0.62;0.00;0.00;0.62;6.57;5.70;;;24.60;20.10;;;;;;2052094;62;20532;-66
2024/04/16 00:23:18;0.00;0.00;0.62;0.00;0.00;0.62;6.77;5.53;;;24.60;20.10;;;;;;2047862;62;20489;-65
2024/04/16 00:26:03;0.00;0.00;0.62;0.00;0.00;0.62;9.10;6.33;;;24.60;20.10;;;;;;2048554;62;20538;-66
2024/04/16 00:28:48;0.00;0.00;0.62;0.00;0.00;0.62;7.90;6.17;;;24.60;20.10;;;;;;2049555;62;20470;-66
2024/04/16 00:31:32;0.00;0.00;0.62;0.00;0.00;0.62;7.03;6.03;;;24.60;20.20;;;;;;2047542;62;20520;-65
2024/04/16 00:34:17;0.00;0.00;0.62;0.00;0.00;0.62;7.53;5.30;;;24.60;20.10;;;;;;2051297;62;20510;-64
2024/04/16 00:37:02;0.00;0.00;0.62;0.00;0.00;0.62;7.20;6.07;;;24.60;20.10;;;;;;2052215;62;20553;-66
2024/04/16 00:39:50;0.00;0.00;0.62;0.00;0.00;0.62;5.90;5.07;;;24.60;20.10;;;;;;2051615;62;20535;-65
2024/04/16 00:42:35;0.00;0.00;0.62;0.00;0.00;0.62;6.13;5.43;;;24.50;20.00;;;;;;2052095;62;20943;-66
2024/04/16 00:45:19;0.00;0.00;0.62;0.00;0.00;0.62;8.17;5.37;;;24.60;20.10;;;;;;2051981;62;20455;-65
2024/04/16 00:48:05;0.00;0.00;0.62;0.00;0.00;0.62;7.63;5.63;;;24.50;20.00;;;;;;2049039;62;20545;-65
2024/04/16 00:50:51;0.00;0.00;0.62;0.00;0.00;0.62;6.93;5.80;;;24.50;20.00;;;;;;2045563;62;20507;-66
2024/04/16 00:53:36;0.00;0.00;0.62;0.00;0.00;0.62;6.40;5.53;;;24.50;20.00;;;;;;2046766;62;20471;-65
2024/04/16 00:56:23;0.00;0.00;0.62;0.00;0.00;0.62;6.10;5.07;;;24.50;20.00;;;;;;2051181;62;20467;-68
2024/04/16 00:59:09;0.00;0.00;0.62;0.00;0.00;0.62;6.83;5.30;;;24.50;20.00;;;;;;2052400;62;20459;-64
2024/04/16 01:01:54;0.00;0.00;0.62;0.00;0.00;0.62;7.27;5.23;;;24.50;20.00;;;;;;2051686;62;20458;-65
2024/04/16 01:04:39;0.00;0.00;0.62;0.00;0.00;0.62;6.57;5.30;;;24.50;20.00;;;;;;2050286;62;20471;-66
2024/04/16 01:07:24;0.00;0.00;0.62;0.00;0.00;0.62;5.50;4.67;;;24.40;19.90;;;;;;2051994;62;20475;-65
2024/04/16 01:10:09;0.00;0.00;0.62;0.00;0.00;0.62;5.37;4.87;;;24.50;20.00;;;;;;2047762;62;20478;-65
2024/04/16 01:12:56;0.00;0.00;0.62;0.00;0.00;0.62;6.73;5.33;;;24.50;20.00;;;;;;2052234;62;20459;-65
2024/04/16 01:15:41;0.00;0.00;0.62;0.00;0.00;0.62;5.53;4.70;;;24.40;19.90;;;;;;2050644;62;20896;-64
2024/04/16 01:18:25;0.00;0.00;0.62;0.00;0.00;0.62;6.23;5.33;;;24.40;19.90;;;;;;2052720;62;20969;-64
2024/04/16 01:21:11;0.00;0.00;0.62;0.00;0.00;0.62;5.33;4.73;;;24.40;19.90;;;;;;2052207;62;20868;-66
2024/04/16 01:23:58;0.00;0.00;0.62;0.00;0.00;0.62;5.63;4.73;;;24.40;20.00;;;;;;2051227;62;20516;-65
2024/04/16 01:26:43;0.00;0.00;0.62;0.00;0.00;0.62;6.53;5.87;;;24.40;20.00;;;;;;2047090;62;20533;-66
2024/04/16 01:29:27;0.00;0.00;0.62;0.00;0.00;0.62;6.23;4.60;;;24.40;20.00;;;;;;2046657;62;20526;-65
2024/04/16 01:32:12;0.00;0.00;0.62;0.00;0.00;0.62;4.73;4.23;;;24.40;20.00;;;;;;2048854;62;20466;-65
2024/04/16 01:34:57;0.00;0.00;0.62;0.00;0.00;0.62;6.27;5.17;;;24.30;19.90;;;;;;2047904;62;20548;-65
2024/04/16 01:37:41;0.00;0.00;0.62;0.00;0.00;0.62;4.90;4.40;;;24.30;19.90;;;;;;2052020;62;20868;-66
2024/04/16 01:40:29;0.00;0.00;0.62;0.00;0.00;0.62;6.17;5.50;;;24.30;20.00;;;;;;2051580;62;20474;-65
2024/04/16 01:43:13;0.00;0.00;0.62;0.00;0.00;0.62;5.17;4.60;;;24.30;20.00;;;;;;2051970;62;20901;-67
2024/04/16 01:45:58;0.00;0.00;0.62;0.00;0.00;0.62;6.30;5.17;;;24.30;20.60;;;;;;2051875;62;20493;-66
2024/04/16 01:48:43;0.00;0.00;0.62;0.00;0.00;0.62;6.10;4.90;;;24.30;20.10;;;;;;2044509;62;20472;-66
2024/04/16 01:51:27;0.00;0.00;0.62;0.00;0.00;0.62;5.60;4.53;;;24.30;20.10;;;;;;2050666;62;20466;-66
2024/04/16 01:54:12;0.00;0.00;0.62;0.00;0.00;0.62;6.87;5.17;;;24.30;20.10;;;;;;2051955;62;20498;-66
2024/04/16 01:56:59;0.00;0.00;0.62;0.00;0.00;0.62;5.90;4.77;;;24.30;20.20;;;;;;2051185;62;20496;-66
2024/04/16 01:59:44;0.00;0.00;0.62;0.00;0.00;0.62;5.83;4.90;;;24.20;20.10;;;;;;2051940;62;20531;-66
2024/04/16 02:02:31;0.00;0.00;0.62;0.00;0.00;0.62;5.13;4.17;;;24.20;20.10;;;;;;2052162;62;20854;-66
2024/04/16 02:05:16;0.00;0.00;0.62;0.00;0.00;0.62;5.03;4.23;;;24.30;20.20;;;;;;2052134;62;20519;-67
2024/04/16 02:08:01;0.00;0.00;0.62;0.00;0.00;0.62;4.20;3.80;;;24.30;20.20;;;;;;2051963;62;20455;-68
2024/04/16 02:10:51;0.00;0.00;0.62;0.00;0.00;0.62;6.60;3.90;;;24.20;20.10;;;;;;2049889;62;20967;-66
2024/04/16 02:13:39;0.00;0.00;0.62;0.00;0.00;0.62;4.20;3.30;;;24.20;20.10;;;;;;2046877;62;20590;-69
2024/04/16 02:16:24;0.00;0.00;0.62;0.00;0.00;0.62;4.33;3.30;;;24.20;20.10;;;;;;2047087;62;20912;-66
2024/04/16 02:19:08;0.00;0.00;0.62;0.00;0.00;0.62;4.00;3.60;;;24.20;20.10;;;;;;2046058;62;20454;-66
2024/04/16 02:21:53;0.00;0.00;0.62;0.00;0.00;0.62;4.17;2.87;;;24.20;20.60;;;;;;2051756;62;20520;-66
2024/04/16 02:24:38;0.00;0.00;0.62;0.00;0.00;0.62;4.20;3.33;;;24.20;20.10;;;;;;2052101;62;21019;-65
2024/04/16 02:27:22;0.00;0.00;0.62;0.00;0.00;0.62;3.70;3.00;;;24.20;20.20;;;;;;2041905;62;20465;-67
2024/04/16 02:30:10;0.00;0.00;0.62;0.00;0.00;0.62;4.10;3.07;;;24.20;20.20;;;;;;2041537;62;20949;-66
2024/04/16 02:32:55;0.00;0.00;0.62;0.00;0.00;0.62;3.43;2.63;;;24.10;20.10;;;;;;2042823;62;20479;-65
2024/04/16 02:35:39;0.00;0.00;0.62;0.00;0.00;0.62;2.80;2.50;;;24.20;20.20;;;;;;2046948;54;20498;-63
2024/04/16 02:38:24;0.00;0.00;0.62;0.00;0.00;0.62;3.40;2.80;;;24.10;20.10;;;;;;2046860;62;21092;-65
2024/04/16 02:41:09;0.00;0.00;0.62;0.00;0.00;0.62;4.27;2.47;;;24.10;20.10;;;;;;2046194;62;20491;-67
2024/04/16 02:43:53;0.00;0.00;0.62;0.00;0.00;0.62;2.90;2.40;;;24.10;20.20;;;;;;2046290;62;20475;-67
2024/04/16 02:46:41;0.00;0.00;0.62;0.00;0.00;0.62;3.47;2.30;;;24.10;20.10;;;;;;2044942;62;20929;-66
2024/04/16 02:49:25;0.00;0.00;0.62;0.00;0.00;0.62;3.20;2.60;;;24.10;20.10;;;;;;2042607;62;20470;-65
2024/04/16 02:52:10;0.00;0.00;0.62;0.00;0.00;0.62;2.97;2.07;;;24.10;20.20;;;;;;2046518;62;20514;-66
2024/04/16 02:54:56;0.00;0.00;0.62;0.00;0.00;0.62;3.60;2.03;;;24.10;20.20;;;;;;2047487;62;20532;-63
2024/04/16 02:57:40;0.00;0.00;0.62;0.00;0.00;0.62;2.30;2.00;;;24.10;20.20;;;;;;2051639;62;20988;-68
2024/04/16 03:00:25;0.00;0.00;0.62;0.00;0.00;0.62;3.20;2.03;;;24.10;20.20;;;;;;2051548;62;20536;-68
2024/04/16 03:03:13;0.00;0.00;0.62;0.00;0.00;0.62;3.30;2.40;;;24.10;20.20;;;;;;2048485;62;20506;-65
2024/04/16 03:05:58;0.00;0.00;0.62;0.00;0.00;0.62;2.30;1.57;;;24.00;20.10;;;;;;2046355;62;20510;-67
2024/04/16 03:08:42;0.00;0.00;0.62;0.00;0.00;0.62;2.93;1.53;;;24.10;20.20;;;;;;2046811;62;20457;-65
2024/04/16 03:11:27;0.00;0.00;0.62;0.00;0.00;0.62;2.50;1.67;;;24.00;20.20;;;;;;2042261;62;20914;-66
2024/04/16 03:14:14;0.00;0.00;0.62;0.00;0.00;0.62;4.20;2.37;;;24.00;20.10;;;;;;2046129;62;20480;-66
2024/04/16 03:16:59;0.00;0.00;0.62;0.00;0.00;0.62;3.93;2.20;;;24.00;20.20;;;;;;2046286;62;20476;-64
2024/04/16 03:19:46;0.00;0.00;0.62;0.00;0.00;0.62;2.90;1.43;;;24.00;20.20;;;;;;2046593;62;20455;-66
2024/04/16 03:22:32;0.00;0.00;0.62;0.00;0.00;0.62;3.67;2.13;;;24.00;20.20;;;;;;2046403;62;21081;-65
2024/04/16 03:25:17;0.00;0.00;0.62;0.00;0.00;0.62;2.00;1.40;;;24.00;20.20;;;;;;2046787;62;20525;-65
2024/04/16 03:28:02;0.00;0.00;0.62;0.00;0.00;0.62;2.67;1.70;;;24.00;20.20;;;;;;2046793;62;20558;-66
2024/04/16 03:30:46;0.00;0.00;0.62;0.00;0.00;0.62;2.70;1.70;;;24.00;20.20;;;;;;2046960;62;20448;-66
2024/04/16 03:33:32;0.00;0.00;0.62;0.00;0.00;0.62;2.50;1.67;;;24.00;20.20;;;;;;2051372;62;20891;-66
2024/04/16 03:36:19;0.00;0.00;0.62;0.00;0.00;0.62;2.63;1.60;;;24.00;20.30;;;;;;2052077;62;20867;-66
2024/04/16 03:39:04;0.00;0.00;0.62;0.00;0.00;0.62;2.63;1.60;;;24.00;20.30;;;;;;2051029;62;20912;-66
2024/04/16 03:41:49;0.00;0.00;0.62;0.00;0.00;0.62;2.83;1.53;;;23.90;20.20;;;;;;2047096;62;20455;-66
2024/04/16 03:44:33;0.00;0.00;0.62;0.00;0.00;0.62;3.93;1.90;;;23.90;20.20;;;;;;2047103;62;20464;-66
2024/04/16 03:47:18;0.00;0.00;0.62;0.00;0.00;0.62;3.40;1.80;;;23.90;20.20;;;;;;2048841;62;20471;-65
2024/04/16 03:50:03;0.00;0.00;0.62;0.00;0.00;0.62;3.33;1.70;;;23.90;20.20;;;;;;2051987;62;20470;-65
2024/04/16 03:52:50;0.00;0.00;0.62;0.00;0.00;0.62;3.20;2.00;;;23.90;20.20;;;;;;2052424;62;20455;-66
2024/04/16 03:55:36;0.00;0.00;0.62;0.00;0.00;0.62;3.00;1.90;;;23.90;20.20;;;;;;2051622;62;20471;-65
2024/04/16 03:58:21;0.00;0.00;0.62;0.00;0.00;0.62;2.70;1.50;;;23.90;20.20;;;;;;2052096;62;20478;-65
2024/04/16 04:01:08;0.00;0.00;0.62;0.00;0.00;0.62;3.07;1.83;;;23.90;20.20;;;;;;2051692;62;20532;-65
2024/04/16 04:03:53;0.00;0.00;0.62;0.00;0.00;0.62;2.40;1.63;;;23.80;20.10;;;;;;2051031;62;20959;-65
2024/04/16 04:06:38;0.00;0.00;0.62;0.00;0.00;0.62;3.20;1.80;;;23.90;20.20;;;;;;2052065;62;20459;-65
2024/04/16 04:09:25;0.00;0.00;0.62;0.00;0.00;0.62;2.50;1.73;;;23.80;20.10;;;;;;2051736;62;20490;-65
2024/04/16 04:12:10;0.00;0.00;0.62;0.00;0.00;0.62;2.70;1.43;;;23.80;20.20;;;;;;2052166;62;20482;-65
2024/04/16 04:14:54;0.00;0.00;0.62;0.00;0.00;0.62;2.63;1.43;;;23.80;20.20;;;;;;2052456;62;20503;-65
2024/04/16 04:17:39;0.00;0.00;0.62;0.00;0.00;0.62;2.80;1.50;;;23.80;20.70;;;;;;2047818;62;20516;-65
2024/04/16 04:20:23;0.00;0.00;0.62;0.00;0.00;0.62;2.83;1.30;;;23.80;20.20;;;;;;2046687;62;20448;-65
2024/04/16 04:23:08;0.00;0.00;0.62;0.00;0.00;0.62;2.50;1.40;;;23.80;20.30;;;;;;2046942;62;21103;-65
2024/04/16 04:25:55;0.00;0.00;0.62;0.00;0.00;0.62;5.33;1.80;;;23.80;20.30;;;;;;2047110;62;20521;-65
2024/04/16 04:28:40;0.00;0.00;0.62;0.00;0.00;0.62;2.63;1.53;;;23.80;20.30;;;;;;2046836;62;21064;-65
2024/04/16 04:31:24;0.00;0.00;0.62;0.00;0.00;0.62;3.63;1.60;;;23.80;20.40;;;;;;2048407;62;21038;-64
2024/04/16 04:34:09;0.00;0.00;0.62;0.00;0.00;0.62;2.17;1.37;;;23.80;20.90;;;;;;2052084;62;20561;-65
2024/04/16 04:36:53;0.00;0.00;0.62;0.00;0.00;0.62;3.70;1.80;;;23.80;20.40;;;;;;2052362;62;20454;-65
2024/04/16 04:39:38;0.00;0.00;0.62;0.00;0.00;0.62;2.80;1.60;;;23.80;20.40;;;;;;2047975;62;20480;-65
2024/04/16 04:42:26;0.00;0.00;0.62;0.00;0.00;0.62;3.23;1.70;;;23.70;20.40;;;;;;2046710;62;20467;-65
2024/04/16 04:45:10;0.00;0.00;0.62;0.00;0.00;0.62;2.40;1.80;;;23.70;20.40;;;;;;2047061;62;20537;-65
2024/04/16 04:47:55;0.00;0.00;0.62;0.00;0.00;0.62;3.97;1.83;;;23.80;20.50;;;;;;2047011;62;20472;-65
2024/04/16 04:50:39;0.00;0.00;0.62;0.00;0.00;0.62;2.00;1.30;;;23.70;20.40;;;;;;2046672;62;20463;-65
2024/04/16 04:53:25;0.00;0.00;0.62;0.00;0.00;0.62;2.60;1.57;;;23.70;20.40;;;;;;2047983;62;20492;-65
2024/04/16 04:56:09;0.00;0.00;0.62;0.00;0.00;0.62;2.93;1.63;;;23.70;20.50;;;;;;2047764;62;20459;-65
2024/04/16 04:58:57;0.00;0.00;0.62;0.00;0.00;0.62;4.03;1.70;;;23.70;20.50;;;;;;2052067;62;20463;-66
2024/04/16 05:01:42;0.00;0.00;0.62;0.00;0.00;0.62;2.53;1.53;;;23.70;20.50;;;;;;2047618;62;21148;-67
2024/04/16 05:04:27;0.00;0.00;0.62;0.00;0.00;0.62;2.77;1.93;;;23.70;20.50;;;;;;2051750;62;20544;-65
2024/04/16 05:07:12;0.00;0.00;0.62;0.00;0.00;0.62;3.27;1.80;;;23.70;20.50;;;;;;2052089;62;20462;-66
2024/04/16 05:09:57;0.00;0.00;0.62;0.00;0.00;0.62;3.63;2.20;;;23.70;20.50;;;;;;2046731;62;20489;-66
2024/04/16 05:12:41;0.00;0.00;0.62;0.00;0.00;0.62;4.93;2.30;;;23.70;20.50;;;;;;2046435;62;20927;-66
2024/04/16 05:15:29;0.00;0.00;0.62;0.00;0.00;0.62;4.40;2.53;;;23.70;20.50;;;;;;2047290;62;20481;-66
2024/04/16 05:18:13;0.00;0.00;0.62;0.00;0.00;0.62;4.10;2.20;;;23.70;20.50;;;;;;2046978;62;20464;-65
2024/04/16 05:20:59;0.00;0.00;0.62;0.00;0.00;0.62;3.43;2.07;;;23.60;20.50;;;;;;2050594;62;20524;-66
2024/04/16 05:23:48;0.00;0.00;0.62;0.00;0.00;0.62;4.27;2.77;;;23.70;20.60;;;;;;2048830;62;20558;-65
2024/04/16 05:26:33;0.00;0.00;0.62;0.00;0.00;0.62;4.00;2.53;;;23.70;20.60;;;;;;2046575;62;20467;-66
2024/04/16 05:29:18;0.00;0.00;0.62;0.00;0.00;0.62;3.40;2.20;;;23.60;20.50;;;;;;2044059;62;20471;-64
2024/04/16 05:32:07;0.00;0.00;0.62;0.00;0.00;0.62;3.10;1.93;;;23.70;20.60;;;;;;2046191;62;20533;-65
2024/04/16 05:34:52;0.00;0.00;0.62;0.00;0.00;0.62;5.13;2.90;;;23.60;20.50;;;;;;2046499;62;20526;-65
2024/04/16 05:37:38;0.00;0.00;0.62;0.00;0.00;0.62;3.47;2.13;;;23.70;20.50;;;;;;2046574;62;20534;-65
2024/04/16 05:40:22;0.00;0.00;0.62;0.00;0.00;0.62;4.40;2.83;;;23.60;20.50;;;;;;2042577;62;20497;-68
2024/04/16 05:43:07;0.00;0.00;0.62;0.00;0.00;0.62;3.27;2.10;;;23.60;20.40;;;;;;2046711;62;21013;-66
2024/04/16 05:45:52;0.00;0.00;0.62;0.00;0.00;0.62;4.57;2.40;;;23.60;20.50;;;;;;2044614;62;20603;-65
2024/04/16 05:48:39;0.00;0.00;0.62;0.00;0.00;0.62;2.97;2.13;;;23.60;20.50;;;;;;2046345;62;20874;-67
2024/04/16 05:51:24;0.00;0.00;0.62;0.00;0.00;0.62;3.17;2.30;;;23.60;20.50;;;;;;2042780;62;20477;-64
2024/04/16 05:54:09;0.00;0.00;0.62;0.00;0.00;0.62;4.97;3.20;;;23.60;20.50;;;;;;2046322;62;20456;-65
2024/04/16 05:56:54;0.00;0.00;0.62;0.00;0.00;0.62;3.60;2.43;;;23.60;20.50;;;;;;2046521;62;20476;-67
2024/04/16 05:59:38;0.00;0.00;0.62;0.00;0.00;0.62;4.13;2.20;;;23.60;20.50;;;;;;2046776;62;20462;-67
2024/04/16 06:02:23;0.00;0.00;0.62;0.00;0.00;0.62;5.50;2.30;;;23.60;20.50;;;;;;2050387;62;20531;-66
2024/04/16 06:05:10;0.00;0.00;0.62;0.00;0.00;0.62;3.90;2.50;;;23.60;20.50;;;;;;2047783;54;20494;-66
2024/04/16 06:07:56;0.00;0.00;0.62;0.00;0.00;0.62;5.40;2.60;;;23.60;20.50;;;;;;2051560;62;20457;-66
2024/04/16 06:10:41;0.00;0.00;0.62;0.00;0.00;0.62;4.37;2.50;;;23.60;20.50;;;;;;2051414;62;20489;-66
2024/04/16 06:13:25;0.00;0.00;0.62;0.00;0.00;0.62;4.27;2.30;;;23.60;20.50;;;;;;2044270;62;20902;-65
2024/04/16 06:16:10;0.00;0.00;0.62;0.00;0.00;0.62;5.27;2.50;;;23.60;20.50;;;;;;2046024;62;20879;-64
2024/04/16 06:18:55;0.00;0.00;0.62;0.00;0.00;0.62;4.97;2.80;;;23.60;20.50;;;;;;2046335;62;21048;-65
2024/04/16 06:21:44;0.00;0.00;0.62;0.00;0.00;0.62;4.37;2.83;;;23.60;20.50;;;;;;2041111;62;20469;-66
2024/04/16 06:24:29;0.00;0.00;0.62;0.00;0.00;0.62;5.33;3.07;;;23.60;20.50;;;;;;2044280;62;21003;-65
2024/04/16 06:27:14;0.00;0.00;0.62;0.00;0.00;0.62;4.27;2.63;;;23.60;20.50;;;;;;2046551;62;20452;-66
2024/04/16 06:29:59;0.00;0.00;0.62;0.00;0.00;0.62;4.43;2.83;;;23.50;20.40;;;;;;2046602;62;20460;-65
2024/04/16 06:32:43;0.00;0.00;0.62;0.00;0.00;0.62;4.73;2.73;;;23.60;20.50;;;;;;2044954;62;20507;-66
2024/04/16 06:35:28;0.00;0.00;0.62;0.00;0.00;0.62;3.87;2.63;;;23.60;20.50;;;;;;2046870;62;21039;-66
2024/04/16 06:38:19;0.00;0.00;0.62;0.00;0.00;0.62;8.40;3.30;;;23.50;20.40;;;;;;2046272;62;20476;-65
2024/04/16 06:41:04;0.00;0.00;0.62;0.00;0.00;0.62;4.20;3.00;;;23.60;20.50;;;;;;2046220;62;21042;-66
2024/04/16 06:43:49;0.00;0.00;0.62;0.00;0.00;0.62;3.90;2.77;;;23.50;20.40;;;;;;2046773;62;20487;-66
2024/04/16 06:46:34;0.00;0.00;0.62;0.00;0.00;0.62;5.00;2.90;;;23.50;20.40;;;;;;2047750;62;20511;-66
2024/04/16 06:49:18;0.00;0.00;0.62;0.00;0.00;0.62;3.43;3.00;;;23.50;20.40;;;;;;2051434;62;21027;-64
2024/04/16 06:52:04;0.00;0.00;0.62;0.00;0.00;0.62;4.37;3.30;;;23.50;20.50;;;;;;2052036;62;20524;-65
2024/04/16 06:54:52;0.00;0.00;0.62;0.00;0.00;0.62;5.17;3.20;;;23.50;20.50;;;;;;2049968;62;20885;-64
2024/04/16 06:57:37;0.00;0.00;0.62;0.00;0.00;0.62;3.27;2.80;;;23.50;20.50;;;;;;2052257;62;20860;-65
2024/04/16 07:00:22;0.00;0.00;0.62;0.00;0.00;0.62;5.67;3.50;;;23.50;20.50;;;;;;2046709;62;20495;-66
2024/04/16 07:03:06;0.00;0.00;0.62;0.00;0.00;0.62;5.17;3.17;;;23.50;20.50;;;;;;2046551;62;20938;-67
2024/04/16 07:05:51;0.00;0.00;0.62;0.00;0.00;0.62;4.70;3.47;;;23.50;20.50;;;;;;2047128;62;20456;-65
2024/04/16 07:08:36;0.00;0.00;0.62;0.00;0.00;0.62;5.37;4.13;;;23.50;20.50;;;;;;2046287;62;20471;-64
2024/04/16 07:11:23;0.00;0.00;0.62;0.00;0.00;0.62;5.97;4.10;;;23.50;20.50;;;;;;2046737;62;20526;-66
2024/04/16 07:14:08;0.00;0.00;0.62;0.00;0.00;0.62;5.57;4.37;;;23.50;20.50;;;;;;2047273;62;20488;-66
2024/04/16 07:16:53;0.00;0.00;0.62;0.00;0.00;0.62;8.20;4.87;;;23.50;20.50;;;;;;2047718;62;20491;-65
2024/04/16 07:19:38;0.00;0.00;0.62;0.00;0.00;0.62;5.37;4.40;;;23.50;20.50;;;;;;2052136;62;20467;-65
2024/04/16 07:22:22;0.00;0.00;0.62;0.00;0.00;0.62;5.50;4.03;;;23.50;20.50;;;;;;2050578;62;20467;-64
2024/04/16 07:25:07;0.00;0.00;0.62;0.00;0.00;0.62;6.40;5.00;;;23.50;20.50;;;;;;2046737;62;20553;-66
2024/04/16 07:27:54;0.00;0.00;0.62;0.00;0.00;0.62;8.67;5.30;;;23.50;20.50;;;;;;2047201;62;20530;-65
2024/04/16 07:30:40;0.00;0.00;0.62;0.00;0.00;0.62;5.77;4.50;;;23.50;20.50;;;;;;2046596;62;20491;-66
2024/04/16 07:33:24;0.00;0.00;0.62;0.00;0.00;0.62;6.07;5.00;;;23.50;20.50;;;;;;2046785;62;20518;-64
2024/04/16 07:36:09;0.00;0.00;0.62;0.00;0.00;0.62;5.53;4.60;;;23.50;20.50;;;;;;2047148;62;20460;-66
2024/04/16 07:38:54;0.00;0.00;0.62;0.00;0.00;0.62;7.97;5.13;;;23.50;20.50;;;;;;2050814;62;20475;-67
2024/04/16 07:41:39;0.00;0.00;0.62;0.00;0.00;0.62;5.97;4.20;;;23.50;20.50;;;;;;2052130;62;20516;-64
2024/04/16 07:44:26;0.00;0.00;0.62;0.00;0.00;0.62;8.07;5.27;;;23.50;20.50;;;;;;2050962;62;20597;-64
2024/04/16 07:47:10;0.00;0.00;0.62;0.00;0.00;0.62;5.43;4.50;;;23.50;20.50;;;;;;2042509;62;20464;-64
2024/04/16 07:49:55;0.00;0.00;0.62;0.00;0.00;0.62;6.77;4.87;;;23.50;20.50;;;;;;2043012;62;20456;-66
2024/04/16 07:52:40;0.00;0.00;0.62;0.00;0.00;0.62;7.20;5.30;;;23.50;20.50;;;;;;2045051;62;21101;-64
2024/04/16 07:55:24;0.00;0.00;0.62;0.00;0.00;0.62;8.27;5.47;;;23.50;20.50;;;;;;2051659;62;20587;-64
2024/04/16 07:58:09;0.00;0.00;0.62;0.00;0.00;0.62;5.00;4.17;;;23.50;20.50;;;;;;2052241;62;20528;-64
2024/04/16 08:00:56;0.00;0.00;0.62;0.00;0.00;0.62;5.40;4.37;;;23.50;20.50;;;;;;2051431;62;20861;-66
2024/04/16 08:03:41;0.00;0.00;0.62;0.00;0.00;0.62;5.73;4.43;;;23.50;20.50;;;;;;2047793;62;20474;-65
2024/04/16 08:06:26;0.00;0.00;0.62;0.00;0.00;0.62;6.77;5.10;;;23.50;20.50;;;;;;2051339;62;20855;-66
2024/04/16 08:09:10;0.00;0.00;0.62;0.00;0.00;0.62;7.93;5.60;;;23.50;20.50;;;;;;2042293;62;20468;-65
2024/04/16 08:11:55;0.00;0.00;0.62;0.00;0.00;0.62;5.67;4.80;;;23.50;21.00;;;;;;2047232;62;20652;-64
2024/04/16 08:14:41;0.00;0.00;0.62;0.00;0.00;0.62;6.77;5.17;;;23.50;20.50;;;;;;2044541;62;20548;-66
2024/04/16 08:17:28;0.00;0.00;0.62;0.00;0.00;0.62;6.80;4.87;;;23.50;20.50;;;;;;2051887;62;20524;-66
2024/04/16 08:20:13;0.00;0.00;0.62;0.00;0.00;0.62;5.10;4.17;;;23.50;20.50;;;;;;2052206;62;20532;-66
2024/04/16 08:22:58;0.00;0.00;0.62;0.00;0.00;0.62;5.00;4.30;;;23.50;20.50;;;;;;2047584;62;20919;-66
2024/04/16 08:25:43;0.00;0.00;0.62;0.00;0.00;0.62;5.73;3.90;;;23.60;20.50;;;;;;2046899;62;20874;-66
2024/04/16 08:28:30;0.00;0.00;0.62;0.00;0.00;0.62;4.93;4.00;;;23.50;20.50;;;;;;2047059;62;21021;-66
2024/04/16 08:31:14;0.00;0.00;0.62;0.00;0.00;0.62;4.03;3.40;;;23.60;20.50;;;;;;2041716;62;20503;-66
2024/04/16 08:34:02;0.00;0.00;0.62;0.00;0.00;0.62;5.10;3.90;;;23.60;20.50;;;;;;2042174;62;20466;-65
2024/04/16 08:36:47;0.00;0.00;0.62;0.00;0.00;0.62;4.70;3.60;;;23.60;20.50;;;;;;2043424;62;20878;-64
2024/04/16 08:39:32;0.00;0.00;0.62;0.00;0.00;0.62;4.57;3.63;;;23.60;20.50;;;;;;2046545;62;20467;-65
2024/04/16 08:42:18;0.00;0.00;0.62;0.00;0.00;0.62;4.63;3.40;;;23.60;20.50;;;;;;2047255;62;20549;-66
2024/04/16 08:45:05;0.00;0.00;0.62;0.00;0.00;0.62;4.17;3.30;;;23.60;20.50;;;;;;2046647;62;20479;-64
2024/04/16 08:47:51;0.00;0.00;0.62;0.00;0.00;0.62;4.27;3.23;;;23.60;20.60;;;;;;2046864;62;20467;-65
2024/04/16 08:50:40;0.00;0.00;0.62;0.00;0.00;0.62;5.00;3.30;;;23.60;20.60;;;;;;2047158;62;20850;-71
2024/04/16 08:53:26;0.00;0.00;0.62;0.00;0.00;0.62;5.73;3.60;;;23.60;20.60;;;;;;2053498;62;20524;-64
2024/04/16 08:56:11;0.00;0.00;0.62;0.00;0.00;0.62;4.30;3.40;;;23.60;20.60;;;;;;2058758;62;20470;-64
2024/04/16 08:58:55;0.00;0.00;0.62;0.00;0.00;0.62;5.00;3.47;;;23.60;20.60;;;;;;2058005;62;20469;-65
2024/04/16 09:01:42;0.00;0.00;0.62;0.00;0.00;0.62;3.57;3.00;;;23.60;20.60;;;;;;2058273;62;20861;-65
2024/04/16 09:04:27;0.00;0.00;0.62;0.00;0.00;0.62;4.33;2.80;;;23.60;20.60;;;;;;2053546;62;20492;-65
2024/04/16 09:07:17;0.00;0.00;0.62;0.00;0.00;0.62;4.30;2.80;;;23.70;20.70;;;;;;2052723;62;20863;-65
2024/04/16 09:10:12;0.00;0.00;0.62;0.00;0.00;0.62;3.50;2.67;;;23.70;20.70;;;;;;2053118;62;20520;-65
2024/04/16 09:13:09;0.00;0.00;0.62;0.00;0.00;0.62;3.30;2.70;;;23.60;20.60;;;;;;2052640;62;21089;-64
2024/04/16 09:15:55;0.00;0.00;0.62;0.00;0.00;0.62;3.90;2.57;;;23.70;20.70;;;;;;2052910;62;20463;-66
2024/04/16 09:18:39;0.00;0.00;0.62;0.00;0.00;0.62;4.63;2.80;;;23.70;20.70;;;;;;2053023;62;20450;-65
2024/04/16 09:21:24;0.00;0.00;0.62;0.00;0.00;0.62;3.53;2.77;;;23.70;20.70;;;;;;2052218;62;20482;-65
2024/04/16 09:24:13;0.00;0.00;0.62;0.00;0.00;0.62;2.70;2.30;;;23.70;20.70;;;;;;2052943;62;20458;-64
2024/04/16 09:27:03;0.00;0.00;0.62;0.00;0.00;0.62;2.93;2.30;;;23.70;20.70;;;;;;2053169;62;20466;-65
2024/04/16 09:29:48;0.00;0.00;0.62;0.00;0.00;0.62;3.97;3.10;;;23.70;20.70;;;;;;2052418;62;20474;-65
2024/04/16 09:32:32;0.00;0.00;0.62;0.00;0.00;0.62;4.67;3.30;;;23.70;20.70;;;;;;2053197;62;20489;-65
2024/04/16 09:35:25;0.00;0.00;0.62;0.00;0.00;0.62;4.13;2.93;;;23.70;20.70;;;;;;2052698;62;20455;-65
2024/04/16 09:38:09;0.00;0.00;0.62;0.00;0.00;0.62;3.70;2.70;;;23.70;20.70;;;;;;2053102;62;20544;-64
2024/04/16 09:40:57;0.00;0.00;0.62;0.00;0.00;0.62;5.03;3.80;;;23.70;20.70;;;;;;2053391;62;20454;-66
2024/04/16 09:43:42;0.00;0.00;0.62;0.00;0.00;0.62;3.87;2.97;;;23.70;20.70;;;;;;2049665;62;20463;-66
2024/04/16 09:46:29;0.00;0.00;0.62;0.00;0.00;0.62;3.70;3.03;;;23.70;20.70;;;;;;2053371;62;20580;-65
2024/04/16 09:49:14;0.00;0.00;0.62;0.00;0.00;0.62;4.80;2.97;;;23.70;20.80;;;;;;2053335;62;20520;-65
2024/04/16 09:52:01;0.00;0.00;0.62;0.00;0.00;0.62;4.60;3.07;;;23.70;20.70;;;;;;2052516;62;20481;-65
2024/04/16 09:54:48;0.00;0.00;0.62;0.00;0.00;0.62;6.50;3.33;;;23.70;20.80;;;;;;2051888;62;21104;-62
2024/04/16 09:57:38;0.00;0.00;0.62;0.00;0.00;0.62;3.87;2.93;;;23.70;20.80;;;;;;2052198;62;20492;-65
2024/04/16 10:00:23;0.00;0.00;0.62;0.00;0.00;0.62;6.03;2.63;;;23.70;20.90;;;;;;2052814;62;21012;-64
2024/04/16 10:03:09;0.00;0.00;0.62;0.00;0.00;0.62;4.30;3.40;;;23.70;20.90;;;;;;2049032;62;20999;-64
2024/04/16 10:05:55;0.00;0.00;0.62;0.00;0.00;0.62;2.90;2.17;;;23.70;20.90;;;;;;2052907;62;20532;-65
2024/04/16 10:08:39;0.00;0.00;0.62;0.00;0.00;0.62;3.80;2.60;;;23.80;21.00;;;;;;2053117;62;20459;-65
2024/04/16 10:11:25;0.00;0.00;0.62;0.00;0.00;0.62;4.37;2.90;;;23.80;21.00;;;;;;2053414;62;20505;-65
2024/04/16 10:14:13;0.00;0.00;0.62;0.00;0.00;0.62;3.37;2.70;;;23.80;21.00;;;;;;2047076;62;20461;-65
2024/04/16 10:16:58;0.00;0.00;0.62;0.00;0.00;0.62;3.50;2.53;;;23.80;21.00;;;;;;2047865;62;20493;-66
2024/04/16 10:19:44;0.00;0.00;0.62;0.00;0.00;0.62;3.50;2.13;;;23.80;21.00;;;;;;2048340;62;20463;-65
2024/04/16 10:22:35;0.00;0.00;0.62;0.00;0.00;0.62;2.83;2.10;;;23.80;21.00;;;;;;2048834;62;20470;-65
2024/04/16 10:25:27;0.00;0.00;0.62;0.00;0.00;0.62;6.20;2.70;;;23.80;21.00;;;;;;2049246;62;20524;-65
2024/04/16 10:28:21;0.00;0.00;0.62;0.00;0.00;0.62;3.00;2.27;;;23.80;21.00;;;;;;2052916;62;20508;-66
2024/04/16 10:31:09;0.00;0.00;0.62;0.00;0.00;0.62;5.17;2.40;;;23.80;21.00;;;;;;2053227;62;20462;-65
2024/04/16 10:33:59;0.00;0.00;0.62;0.00;0.00;0.62;3.00;2.30;;;23.80;21.00;;;;;;2048932;62;20884;-67
2024/04/16 10:36:44;0.00;0.00;0.62;0.00;0.00;0.62;2.47;1.70;;;23.80;21.00;;;;;;2053048;62;20524;-65
2024/04/16 10:39:31;0.00;0.00;0.62;0.00;0.00;0.62;2.83;2.00;;;23.80;21.00;;;;;;2049267;62;20462;-65
2024/04/16 10:42:19;0.00;0.00;0.62;0.00;0.00;0.62;2.73;1.90;;;23.80;21.00;;;;;;2052403;62;20478;-64
2024/04/16 10:45:05;0.00;0.00;0.62;0.00;0.00;0.62;2.93;1.93;;;23.80;21.00;;;;;;2052343;62;21071;-64
2024/04/16 10:47:53;0.00;0.00;0.62;0.00;0.00;0.62;2.30;1.60;;;23.90;21.10;;;;;;2048942;62;20512;-65
2024/04/16 10:50:38;0.00;0.00;0.62;0.00;0.00;0.62;3.33;1.80;;;23.90;21.10;;;;;;2052038;62;20506;-64
2024/04/16 10:53:23;0.00;0.00;0.62;0.00;0.00;0.62;3.10;1.87;;;23.80;21.00;;;;;;2052712;62;21041;-66